createdAt,value
2019-03-27T00:02:18.543Z,99140.45
2019-03-27T00:04:49.865Z,99144.74
2019-03-27T00:07:21.001Z,99141.73
2019-03-27T00:09:51.962Z,99143.27
2019-03-27T00:12:23.006Z,99141.73
2019-03-27T00:14:54.155Z,99138.44
2019-03-27T00:17:25.188Z,99136.95
2019-03-27T00:19:56.233Z,99140.95
2019-03-27T00:22:27.316Z,99134.67
2019-03-27T00:24:58.519Z,99134.30
2019-03-27T00:27:29.689Z,99139.95
2019-03-27T00:30:00.812Z,99136.16
2019-03-27T00:32:31.955Z,99136.62
2019-03-27T00:35:03.077Z,99134.84
2019-03-27T00:37:34.182Z,99133.48
2019-03-27T00:40:05.742Z,99134.17
2019-03-27T00:42:36.949Z,99129.56
2019-03-27T00:45:09.278Z,99128.84
2019-03-27T00:47:40.466Z,99131.53
2019-03-27T00:50:11.968Z,99130.26
2019-03-27T00:52:43.076Z,99127.88
2019-03-27T00:55:15.995Z,99130.88
2019-03-27T00:57:47.225Z,99126.99
2019-03-27T01:00:28.096Z,99136.12
2019-03-27T01:02:59.360Z,99132.70
2019-03-27T01:05:30.490Z,99127.78
2019-03-27T01:08:01.618Z,99126.83
2019-03-27T01:10:32.785Z,99131.25
2019-03-27T01:13:04.005Z,99131.74
2019-03-27T01:15:40.147Z,99127.38
2019-03-27T01:18:07.927Z,99127.08
2019-03-27T01:20:39.089Z,99126.70
2019-03-27T01:23:10.199Z,99125.92
2019-03-27T01:25:41.287Z,99122.95
2019-03-27T01:28:12.402Z,99122.05
2019-03-27T01:30:43.528Z,99126.46
2019-03-27T01:33:14.676Z,99117.87
2019-03-27T01:35:45.700Z,99124.56
2019-03-27T01:38:16.714Z,99117.09
2019-03-27T01:40:47.851Z,99117.95
2019-03-27T01:43:18.952Z,99119.28
2019-03-27T01:45:53.194Z,99118.16
2019-03-27T01:48:23.031Z,99112.52
2019-03-27T01:50:54.244Z,99111.52
2019-03-27T01:53:25.354Z,99106.28
2019-03-27T01:55:59.335Z,99107.89
2019-03-27T01:58:30.441Z,99102.95
2019-03-27T02:01:01.846Z,99104.96
2019-03-27T02:03:32.947Z,99109.87
2019-03-27T02:06:04.064Z,99102.86
2019-03-27T02:08:35.162Z,99092.67
2019-03-27T02:11:06.361Z,99107.41
2019-03-27T02:13:37.580Z,99104.88
2019-03-27T02:16:08.692Z,99104.88
2019-03-27T02:18:39.731Z,99106.08
2019-03-27T02:21:10.942Z,99108.67
2019-03-27T02:23:42.143Z,99114.98
2019-03-27T02:26:13.276Z,99117.51
2019-03-27T02:28:44.402Z,99108.96
2019-03-27T02:31:15.698Z,99110.41
2019-03-27T02:33:46.879Z,99107.60
2019-03-27T02:36:17.934Z,99105.13
2019-03-27T02:38:49.127Z,99103.60
2019-03-27T02:41:20.228Z,99100.05
2019-03-27T02:43:51.248Z,99102.56
2019-03-27T02:46:24.895Z,99119.90
2019-03-27T02:48:55.241Z,99107.93
2019-03-27T02:51:26.314Z,99111.56
2019-03-27T02:53:57.343Z,99112.23
2019-03-27T02:56:28.590Z,99106.12
2019-03-27T02:58:59.677Z,99109.25
2019-03-27T03:01:31.728Z,99114.05
2019-03-27T03:04:02.855Z,99118.66
2019-03-27T03:06:33.924Z,99120.80
2019-03-27T03:09:06.419Z,99125.63
2019-03-27T03:11:37.641Z,99116.39
2019-03-27T03:14:08.826Z,99119.56
2019-03-27T03:16:42.780Z,99117.55
2019-03-27T03:19:12.807Z,99116.59
2019-03-27T03:21:44.022Z,99109.13
2019-03-27T03:24:15.197Z,99116.10
2019-03-27T03:26:50.630Z,99106.77
2019-03-27T03:29:19.171Z,99101.83
2019-03-27T03:31:50.153Z,99106.15
2019-03-27T03:34:21.290Z,99111.77
2019-03-27T03:36:52.522Z,99104.92
2019-03-27T03:39:26.659Z,99107.89
2019-03-27T03:41:57.782Z,99103.14
2019-03-27T03:44:29.068Z,99094.44
2019-03-27T03:47:00.714Z,99110.20
2019-03-27T03:49:31.874Z,99113.08
2019-03-27T03:52:04.001Z,99110.44
2019-03-27T03:54:35.175Z,99117.04
2019-03-27T03:57:07.139Z,99115.06
2019-03-27T03:59:40.255Z,99115.22
2019-03-27T04:02:12.388Z,99114.40
2019-03-27T04:04:45.797Z,99114.53
2019-03-27T04:07:16.851Z,99118.52
2019-03-27T04:09:47.877Z,99113.73
2019-03-27T04:12:19.079Z,99120.17
2019-03-27T04:14:50.028Z,99117.41
2019-03-27T04:17:21.144Z,99116.12
2019-03-27T04:19:52.268Z,99118.14
2019-03-27T04:22:23.371Z,99124.90
2019-03-27T04:24:54.368Z,99123.28
2019-03-27T04:27:25.525Z,99131.33
2019-03-27T04:29:56.608Z,99126.19
2019-03-27T04:32:27.723Z,99122.39
2019-03-27T04:34:58.737Z,99127.70
2019-03-27T04:37:30.006Z,99125.39
2019-03-27T04:40:01.275Z,99118.59
2019-03-27T04:42:32.436Z,99123.38
2019-03-27T04:45:03.511Z,99122.39
2019-03-27T04:47:34.541Z,99121.41
2019-03-27T04:50:06.396Z,99110.61
2019-03-27T04:52:37.540Z,99118.14
2019-03-27T04:55:09.195Z,99117.64
2019-03-27T04:57:40.194Z,99122.52
2019-03-27T05:00:12.096Z,99121.92
2019-03-27T05:02:43.241Z,99125.36
2019-03-27T05:05:15.064Z,99124.37
2019-03-27T05:07:46.113Z,99123.25
2019-03-27T05:10:17.330Z,99133.08
2019-03-27T05:12:50.240Z,99135.13
2019-03-27T05:15:21.445Z,99144.39
2019-03-27T05:17:52.538Z,99136.11
2019-03-27T05:20:23.728Z,99139.75
2019-03-27T05:22:54.712Z,99135.92
2019-03-27T05:25:25.761Z,99131.83
2019-03-27T05:27:56.844Z,99140.20
2019-03-27T05:30:30.561Z,99151.98
2019-03-27T05:33:02.167Z,99148.32
2019-03-27T05:35:33.344Z,99153.08
2019-03-27T05:38:04.450Z,99159.11
2019-03-27T05:40:35.674Z,99156.27
2019-03-27T05:43:06.862Z,99161.09
2019-03-27T05:45:38.193Z,99160.80
2019-03-27T05:48:09.412Z,99147.89
2019-03-27T05:50:40.472Z,99167.49
2019-03-27T05:53:11.528Z,99175.38
2019-03-27T05:55:42.729Z,99176.77
2019-03-27T05:58:13.768Z,99175.34
2019-03-27T06:00:45.080Z,99181.22
2019-03-27T06:03:16.216Z,99181.14
2019-03-27T06:05:47.364Z,99180.15
2019-03-27T06:08:18.550Z,99183.82
2019-03-27T06:10:49.823Z,99179.48
2019-03-27T06:13:20.968Z,99179.42
2019-03-27T06:15:52.092Z,99181.02
2019-03-27T06:18:23.882Z,99186.64
2019-03-27T06:20:55.440Z,99186.73
2019-03-27T06:23:26.526Z,99192.42
2019-03-27T06:25:57.886Z,99179.22
2019-03-27T06:28:30.930Z,99197.52
2019-03-27T06:31:01.868Z,99198.69
2019-03-27T06:33:32.887Z,99189.80
2019-03-27T06:36:04.190Z,99184.21
2019-03-27T06:38:35.354Z,99191.36
2019-03-27T06:41:06.550Z,99191.06
2019-03-27T06:43:37.787Z,99187.21
2019-03-27T06:46:08.969Z,99164.78
2019-03-27T06:48:40.129Z,99196.02
2019-03-27T06:51:11.427Z,99194.91
2019-03-27T06:53:42.469Z,99196.05
2019-03-27T06:56:13.645Z,99193.74
2019-03-27T06:58:54.408Z,99193.22
2019-03-27T07:01:17.360Z,99202.34
2019-03-27T07:03:48.533Z,99190.91
2019-03-27T07:06:19.669Z,99195.83
2019-03-27T07:08:50.712Z,99204.09
2019-03-27T07:11:21.953Z,99211.23
2019-03-27T07:13:52.926Z,99205.47
2019-03-27T07:16:24.141Z,99213.69
2019-03-27T07:18:55.267Z,99216.00
2019-03-27T07:21:26.471Z,99215.17
2019-03-27T07:23:57.559Z,99221.80
2019-03-27T07:26:28.620Z,99220.44
2019-03-27T07:28:59.826Z,99212.17
2019-03-27T07:31:31.029Z,99222.31
2019-03-27T07:34:02.328Z,99220.36
2019-03-27T07:36:33.440Z,99221.80
2019-03-27T07:39:11.316Z,99222.38
2019-03-27T07:41:38.826Z,99217.69
2019-03-27T07:44:09.984Z,99222.36
2019-03-27T07:46:41.240Z,99224.30
2019-03-27T07:49:12.219Z,99226.22
2019-03-27T07:51:43.258Z,99225.33
2019-03-27T07:54:14.363Z,99232.32
2019-03-27T07:56:45.602Z,99235.66
2019-03-27T07:59:16.583Z,99236.50
2019-03-27T08:01:47.813Z,99233.98
2019-03-27T08:04:18.957Z,99230.42
2019-03-27T08:06:50.371Z,99234.72
2019-03-27T08:09:23.045Z,99228.59
2019-03-27T08:11:54.294Z,99230.92
2019-03-27T08:14:25.439Z,99251.26
2019-03-27T08:16:56.602Z,99249.16
2019-03-27T08:19:27.792Z,99242.67
2019-03-27T08:21:58.873Z,99244.47
2019-03-27T08:24:30.062Z,99244.11
2019-03-27T08:27:01.240Z,99243.10
2019-03-27T08:29:32.276Z,99248.33
2019-03-27T08:32:03.435Z,99252.73
2019-03-27T08:34:34.594Z,99249.09
2019-03-27T08:37:05.849Z,99245.11
2019-03-27T08:39:36.873Z,99250.47
2019-03-27T08:42:07.942Z,99247.17
2019-03-27T08:44:39.145Z,99243.75
2019-03-27T08:47:10.255Z,99247.83
2019-03-27T08:49:41.356Z,99240.86
2019-03-27T08:52:12.672Z,99247.91
2019-03-27T08:54:43.749Z,99247.40
2019-03-27T08:57:14.873Z,99246.00
2019-03-27T08:59:46.062Z,99258.00
2019-03-27T09:02:17.323Z,99250.30
2019-03-27T09:04:48.513Z,99255.46
2019-03-27T09:07:19.688Z,99259.58
2019-03-27T09:09:50.800Z,99258.19
2019-03-27T09:12:22.021Z,99259.41
2019-03-27T09:14:52.983Z,99262.60
2019-03-27T09:17:24.228Z,99260.82
2019-03-27T09:19:55.397Z,99264.45
2019-03-27T09:22:26.539Z,99263.20
2019-03-27T09:24:57.578Z,99263.47
2019-03-27T09:27:28.850Z,99258.98
2019-03-27T09:30:00.202Z,99260.98
2019-03-27T09:32:31.481Z,99257.98
2019-03-27T09:35:02.628Z,99267.15
2019-03-27T09:37:33.927Z,99278.08
2019-03-27T09:40:05.349Z,99279.28
2019-03-27T09:42:36.476Z,99274.56
2019-03-27T09:45:08.955Z,99269.62
2019-03-27T09:47:40.172Z,99271.47
2019-03-27T09:50:11.932Z,99272.93
2019-03-27T09:52:43.182Z,99272.22
2019-03-27T09:55:16.317Z,99271.47
2019-03-27T09:57:47.484Z,99271.31
2019-03-27T10:00:29.795Z,99267.14
2019-03-27T10:03:02.125Z,99273.65
2019-03-27T10:05:33.093Z,99265.16
2019-03-27T10:08:04.352Z,99262.49
2019-03-27T10:10:35.473Z,99261.98
2019-03-27T10:13:06.844Z,99263.33
2019-03-27T10:15:38.161Z,99258.56
2019-03-27T10:18:09.395Z,99261.03
2019-03-27T10:20:40.689Z,99261.79
2019-03-27T10:23:12.014Z,99266.92
2019-03-27T10:25:43.342Z,99256.16
2019-03-27T10:28:14.510Z,99258.66
2019-03-27T10:30:45.707Z,99252.63
2019-03-27T10:33:16.936Z,99259.20
2019-03-27T10:35:48.237Z,99254.37
2019-03-27T10:38:19.549Z,99261.92
2019-03-27T10:40:50.690Z,99262.46
2019-03-27T10:43:21.979Z,99250.25
2019-03-27T10:45:53.364Z,99244.84
2019-03-27T10:48:24.637Z,99251.65
2019-03-27T10:50:55.871Z,99253.06
2019-03-27T10:53:27.032Z,99246.79
2019-03-27T10:55:58.214Z,99249.59
2019-03-27T10:58:29.418Z,99256.86
2019-03-27T11:01:00.732Z,99251.20
2019-03-27T11:03:31.873Z,99255.20
2019-03-27T11:06:03.159Z,99250.31
2019-03-27T11:08:34.414Z,99257.60
2019-03-27T11:11:05.981Z,99254.50
2019-03-27T11:13:37.149Z,99261.23
2019-03-27T11:16:08.594Z,99261.56
2019-03-27T11:18:39.839Z,99266.55
2019-03-27T11:21:10.987Z,99257.02
2019-03-27T11:23:42.195Z,99254.31
2019-03-27T11:26:13.536Z,99249.56
2019-03-27T11:28:44.675Z,99251.71
2019-03-27T11:31:15.860Z,99246.72
2019-03-27T11:33:47.181Z,99253.56
2019-03-27T11:36:18.478Z,99250.72
2019-03-27T11:38:49.610Z,99254.00
2019-03-27T11:41:21.481Z,99250.60
2019-03-27T11:43:55.097Z,99245.87
2019-03-27T11:46:25.488Z,99244.39
2019-03-27T11:48:56.730Z,99242.93
2019-03-27T11:51:27.942Z,99241.25
2019-03-27T11:53:59.013Z,99254.13
2019-03-27T11:56:30.211Z,99242.97
2019-03-27T11:59:01.622Z,99249.22
2019-03-27T12:01:39.620Z,99242.25
2019-03-27T12:04:06.003Z,99245.77
2019-03-27T12:06:37.298Z,99243.22
2019-03-27T12:09:09.478Z,99244.58
2019-03-27T12:11:40.581Z,99246.03
2019-03-27T12:14:12.457Z,99242.87
2019-03-27T12:16:43.585Z,99244.48
2019-03-27T12:19:14.742Z,99243.15
2019-03-27T12:21:45.886Z,99235.19
2019-03-27T12:24:17.160Z,99231.28
2019-03-27T12:26:48.261Z,99231.09
2019-03-27T12:29:19.473Z,99233.06
2019-03-27T12:31:50.613Z,99230.41
2019-03-27T12:34:22.049Z,99231.54
2019-03-27T12:36:53.276Z,99225.48
2019-03-27T12:39:24.727Z,99225.24
2019-03-27T12:41:55.892Z,99224.29
2019-03-27T12:44:26.895Z,99228.84
2019-03-27T12:46:58.174Z,99235.27
2019-03-27T12:49:29.506Z,99226.15
2019-03-27T12:52:00.968Z,99226.72
2019-03-27T12:54:32.310Z,99228.44
2019-03-27T12:57:03.393Z,99230.64
2019-03-27T12:59:34.637Z,99228.28
2019-03-27T13:02:06.787Z,99228.73
2019-03-27T13:04:37.904Z,99226.04
2019-03-27T13:07:09.118Z,99223.88
2019-03-27T13:09:40.189Z,99223.22
2019-03-27T13:12:11.503Z,99222.13
2019-03-27T13:14:42.714Z,99219.64
2019-03-27T13:17:14.086Z,99223.41
2019-03-27T13:19:45.183Z,99226.67
2019-03-27T13:22:16.178Z,99216.14
2019-03-27T13:24:47.381Z,99220.72
2019-03-27T13:27:18.522Z,99204.91
2019-03-27T13:29:49.773Z,99214.73
2019-03-27T13:32:20.998Z,99217.02
2019-03-27T13:34:52.349Z,99214.06
2019-03-27T13:37:23.760Z,99215.33
2019-03-27T13:39:54.821Z,99210.73
2019-03-27T13:42:26.239Z,99210.55
2019-03-27T13:44:57.747Z,99213.48
2019-03-27T13:47:28.860Z,99213.48
2019-03-27T13:50:00.148Z,99205.21
2019-03-27T13:52:31.370Z,99211.53
2019-03-27T13:55:02.425Z,99210.55
2019-03-27T13:57:33.718Z,99208.75
2019-03-27T14:00:08.846Z,99199.73
2019-03-27T14:02:40.170Z,99201.78
2019-03-27T14:05:11.685Z,99196.20
2019-03-27T14:07:42.909Z,99196.18
2019-03-27T14:10:14.454Z,99195.73
2019-03-27T14:12:45.694Z,99188.09
2019-03-27T14:15:17.696Z,99182.23
2019-03-27T14:17:50.029Z,99180.02
2019-03-27T14:20:22.349Z,99180.89
2019-03-27T14:22:54.543Z,99173.64
2019-03-27T14:25:27.602Z,99179.77
2019-03-27T14:27:59.134Z,99173.52
2019-03-27T14:30:57.943Z,99174.57
2019-03-27T14:33:29.219Z,99181.36
2019-03-27T14:36:00.472Z,99179.39
2019-03-27T14:38:31.705Z,99183.02
2019-03-27T14:41:02.952Z,99191.48
2019-03-27T14:43:34.220Z,99187.30
2019-03-27T14:46:05.537Z,99186.98
2019-03-27T14:48:36.694Z,99186.48
2019-03-27T14:51:07.975Z,99181.72
2019-03-27T14:53:39.175Z,99180.89
2019-03-27T14:56:10.479Z,99184.71
2019-03-27T14:58:41.474Z,99179.25
2019-03-27T15:01:12.635Z,99184.75
2019-03-27T15:03:43.843Z,99177.05
2019-03-27T15:06:14.992Z,99169.39
2019-03-27T15:08:46.030Z,99180.06
2019-03-27T15:11:17.251Z,99179.34
2019-03-27T15:13:48.369Z,99181.84
2019-03-27T15:16:19.592Z,99179.83
2019-03-27T15:18:52.553Z,99184.83
2019-03-27T15:21:24.014Z,99184.51
2019-03-27T15:23:55.250Z,99181.95
2019-03-27T15:26:26.649Z,99181.38
2019-03-27T15:28:57.916Z,99178.78
2019-03-27T15:31:29.558Z,99186.48
2019-03-27T15:34:00.751Z,99184.66
2019-03-27T15:36:31.982Z,99190.22
2019-03-27T15:39:04.793Z,99186.22
2019-03-27T15:41:35.975Z,99180.33
2019-03-27T15:44:07.221Z,99184.89
2019-03-27T15:46:38.424Z,99187.61
2019-03-27T15:49:09.508Z,99183.74
2019-03-27T15:51:40.796Z,99188.41
2019-03-27T15:54:11.971Z,99188.69
2019-03-27T15:56:43.285Z,99184.97
2019-03-27T15:59:14.430Z,99176.53
2019-03-27T16:01:45.730Z,99187.28
2019-03-27T16:04:16.905Z,99179.17
2019-03-27T16:06:48.180Z,99182.36
2019-03-27T16:09:20.802Z,99176.39
2019-03-27T16:11:51.882Z,99182.38
2019-03-27T16:14:23.195Z,99179.59
2019-03-27T16:17:12.076Z,99182.23
2019-03-27T16:19:29.039Z,99182.00
2019-03-27T16:22:00.329Z,99183.84
2019-03-27T16:24:31.690Z,99190.42
2019-03-27T16:27:04.662Z,99188.63
2019-03-27T16:29:35.939Z,99190.42
2019-03-27T16:32:07.567Z,99194.86
2019-03-27T16:34:39.024Z,99188.13
2019-03-27T16:37:10.296Z,99193.81
2019-03-27T16:39:41.495Z,99190.72
2019-03-27T16:42:12.953Z,99199.38
2019-03-27T16:44:44.408Z,99203.99
2019-03-27T16:47:15.691Z,99197.06
2019-03-27T16:49:46.965Z,99202.74
2019-03-27T16:52:18.358Z,99210.38
2019-03-27T16:54:49.700Z,99202.55
2019-03-27T16:57:20.953Z,99207.91
2019-03-27T16:59:52.202Z,99201.98
2019-03-27T17:02:23.463Z,99204.77
2019-03-27T17:04:54.699Z,99211.42
2019-03-27T17:07:25.882Z,99213.14
2019-03-27T17:09:57.035Z,99213.48
2019-03-27T17:12:31.345Z,99219.31
2019-03-27T17:15:01.490Z,99215.32
2019-03-27T17:17:34.105Z,99224.94
2019-03-27T17:20:06.542Z,99227.02
2019-03-27T17:22:37.833Z,99225.13
2019-03-27T17:25:09.925Z,99228.30
2019-03-27T17:27:41.196Z,99234.45
2019-03-27T17:30:13.299Z,99233.02
2019-03-27T17:32:44.592Z,99233.86
2019-03-27T17:35:15.782Z,99236.84
2019-03-27T17:37:47.099Z,99236.81
2019-03-27T17:40:18.479Z,99241.73
2019-03-27T17:42:49.835Z,99243.45
2019-03-27T17:45:21.059Z,99244.19
2019-03-27T17:47:52.254Z,99241.81
2019-03-27T17:50:23.562Z,99247.14
2019-03-27T17:52:54.733Z,99250.50
2019-03-27T17:55:26.010Z,99244.23
2019-03-27T17:57:57.247Z,99247.52
2019-03-27T18:00:56.183Z,99245.87
2019-03-27T18:03:27.467Z,99249.05
2019-03-27T18:05:58.730Z,99256.59
2019-03-27T18:08:30.249Z,99256.66
2019-03-27T18:11:01.613Z,99258.02
2019-03-27T18:13:33.000Z,99248.55
2019-03-27T18:16:04.184Z,99261.36
2019-03-27T18:18:35.629Z,99259.03
2019-03-27T18:21:06.977Z,99263.70
2019-03-27T18:23:45.689Z,99267.41
2019-03-27T18:26:11.165Z,99264.84
2019-03-27T18:28:43.837Z,99271.67
2019-03-27T18:31:15.059Z,99270.53
2019-03-27T18:33:46.373Z,99278.30
2019-03-27T18:36:17.665Z,99275.83
2019-03-27T18:38:48.911Z,99280.50
2019-03-27T18:41:20.260Z,99277.51
2019-03-27T18:43:51.580Z,99288.03
2019-03-27T18:46:22.956Z,99284.06
2019-03-27T18:48:54.108Z,99290.59
2019-03-27T18:51:25.315Z,99289.54
2019-03-27T18:53:59.825Z,99291.02
2019-03-27T18:56:29.845Z,99294.21
2019-03-27T18:59:01.036Z,99304.05
2019-03-27T19:01:32.414Z,99300.59
2019-03-27T19:04:03.770Z,99302.56
2019-03-27T19:06:35.055Z,99303.72
2019-03-27T19:09:09.138Z,99301.48
2019-03-27T19:11:40.932Z,99310.50
2019-03-27T19:14:12.480Z,99309.25
2019-03-27T19:16:43.855Z,99310.94
2019-03-27T19:19:15.093Z,99313.66
2019-03-27T19:21:46.447Z,99327.14
2019-03-27T19:24:17.523Z,99321.08
2019-03-27T19:26:48.918Z,99320.22
2019-03-27T19:29:20.052Z,99321.72
2019-03-27T19:31:51.387Z,99319.96
2019-03-27T19:34:22.632Z,99331.96
2019-03-27T19:36:53.923Z,99325.45
2019-03-27T19:39:26.159Z,99327.84
2019-03-27T19:41:57.332Z,99330.42
2019-03-27T19:44:28.806Z,99333.14
2019-03-27T19:47:00.058Z,99331.02
2019-03-27T19:49:31.478Z,99331.52
2019-03-27T19:52:02.949Z,99323.20
2019-03-27T19:54:34.061Z,99332.14
2019-03-27T19:57:05.286Z,99333.41
2019-03-27T19:59:36.667Z,99336.03
2019-03-27T20:02:08.013Z,99342.39
2019-03-27T20:04:40.850Z,99335.88
2019-03-27T20:07:11.961Z,99339.41
2019-03-27T20:09:43.524Z,99337.64
2019-03-27T20:12:14.892Z,99340.72
2019-03-27T20:14:46.249Z,99336.52
2019-03-27T20:17:17.476Z,99341.81
2019-03-27T20:19:48.670Z,99348.44
2019-03-27T20:22:20.052Z,99348.52
2019-03-27T20:24:51.318Z,99354.33
2019-03-27T20:27:22.552Z,99350.69
2019-03-27T20:29:53.672Z,99357.59
2019-03-27T20:32:27.380Z,99350.32
2019-03-27T20:34:58.644Z,99348.72
2019-03-27T20:37:30.012Z,99349.09
2019-03-27T20:40:01.373Z,99345.50
2019-03-27T20:42:32.485Z,99341.98
2019-03-27T20:45:03.982Z,99342.83
2019-03-27T20:47:35.066Z,99336.56
2019-03-27T20:50:07.276Z,99340.39
2019-03-27T20:52:38.341Z,99343.78
2019-03-27T20:55:09.876Z,99341.89
2019-03-27T20:57:41.097Z,99339.84
2019-03-27T21:03:22.856Z,99343.64
2019-03-27T21:05:54.553Z,99342.98
2019-03-27T21:08:25.897Z,99344.16
2019-03-27T21:10:57.168Z,99348.45
2019-03-27T21:13:28.426Z,99347.32
2019-03-27T21:16:00.186Z,99349.22
2019-03-27T21:18:31.347Z,99348.97
2019-03-27T21:21:03.005Z,99349.13
2019-03-27T21:23:34.268Z,99352.80
2019-03-27T21:26:05.541Z,99352.68
2019-03-27T21:28:36.808Z,99354.30
2019-03-27T21:31:08.012Z,99349.70
2019-03-27T21:33:39.325Z,99350.70
2019-03-27T21:36:10.359Z,99353.86
2019-03-27T21:38:41.936Z,99352.36
2019-03-27T21:41:13.464Z,99357.84
2019-03-27T21:43:45.999Z,99355.56
2019-03-27T21:46:17.252Z,99352.09
2019-03-27T21:48:49.187Z,99352.94
2019-03-27T21:51:20.360Z,99356.25
2019-03-27T21:53:51.610Z,99356.08
2019-03-27T21:56:23.993Z,99359.04
2019-03-27T21:58:55.277Z,99363.48
2019-03-27T22:01:26.647Z,99366.61
2019-03-27T22:03:57.743Z,99358.23
2019-03-27T22:06:28.877Z,99367.11
2019-03-27T22:08:59.913Z,99367.47
2019-03-27T22:11:31.160Z,99367.48
2019-03-27T22:14:02.354Z,99366.80
2019-03-27T22:16:33.452Z,99371.24
2019-03-27T22:19:04.719Z,99371.09
2019-03-27T22:21:36.170Z,99374.05
2019-03-27T22:24:07.419Z,99370.26
2019-03-27T22:26:38.511Z,99371.56
2019-03-27T22:29:09.774Z,99372.39
2019-03-27T22:31:41.072Z,99386.72
2019-03-27T22:34:12.284Z,99371.42
2019-03-27T22:36:43.350Z,99369.41
2019-03-27T22:39:14.463Z,99376.48
2019-03-27T22:41:45.469Z,99387.36
2019-03-27T22:44:16.680Z,99371.41
2019-03-27T22:46:47.889Z,99373.86
2019-03-27T22:49:18.743Z,99372.72
2019-03-27T22:51:49.902Z,99375.94
2019-03-27T22:54:21.109Z,99368.63
2019-03-27T22:56:52.205Z,99368.45
2019-03-27T22:59:23.307Z,99379.62
2019-03-27T23:01:54.478Z,99377.33
2019-03-27T23:04:25.729Z,99384.83
2019-03-27T23:06:56.975Z,99386.35
2019-03-27T23:09:28.216Z,99383.50
2019-03-27T23:11:59.412Z,99387.15
2019-03-27T23:14:30.444Z,99384.64
2019-03-27T23:17:01.620Z,99391.66
2019-03-27T23:19:32.800Z,99392.30
2019-03-27T23:22:03.864Z,99393.30
2019-03-27T23:24:35.108Z,99401.22
2019-03-27T23:27:06.358Z,99397.35
2019-03-27T23:29:37.412Z,99395.17
2019-03-27T23:32:08.584Z,99394.22
2019-03-27T23:34:39.710Z,99393.73
2019-03-27T23:37:10.913Z,99392.36
2019-03-27T23:39:41.952Z,99393.88
2019-03-27T23:42:12.944Z,99376.50
2019-03-27T23:44:44.154Z,99388.67
2019-03-27T23:47:15.445Z,99393.47
2019-03-27T23:49:46.549Z,99382.17
2019-03-27T23:52:17.670Z,99388.59
2019-03-27T23:54:48.802Z,99390.47
2019-03-27T23:57:19.935Z,99384.78
2019-03-27T23:59:51.081Z,99387.84
